sensor_id;sensor_type;location;lat;lon;timestamp;P1;durP1;ratioP1;P2;durP2;ratioP2
21675;SDS011;10999;51.332;9.458;2023-01-05T00:01:06;3.95;;;1.00;;
21675;SDS011;10999;51.332;9.458;2023-01-05T00:03:35;9.15;;;1.00;;
21675;SDS011;10999;51.332;9.458;2023-01-05T00:06:11;7.32;;;1.10;;
21675;SDS011;10999;51.332;9.458;2023-01-05T00:08:43;7.03;;;1.55;;
21675;SDS011;10999;51.332;9.458;2023-01-05T00:11:14;8.18;;;1.13;;
21675;SDS011;10999;51.332;9.458;2023-01-05T00:14:01;5.80;;;1.20;;
21675;SDS011;10999;51.332;9.458;2023-01-05T00:16:47;8.05;;;1.15;;
21675;SDS011;10999;51.332;9.458;2023-01-05T00:19:32;6.43;;;0.90;;
21675;SDS011;10999;51.332;9.458;2023-01-05T00:22:22;7.65;;;1.00;;
21675;SDS011;10999;51.332;9.458;2023-01-05T00:25:12;9.15;;;1.10;;
21675;SDS011;10999;51.332;9.458;2023-01-05T00:27:45;5.20;;;1.13;;
21675;SDS011;10999;51.332;9.458;2023-01-05T00:30:18;9.30;;;1.40;;
21675;SDS011;10999;51.332;9.458;2023-01-05T00:32:46;8.02;;;1.20;;
21675;SDS011;10999;51.332;9.458;2023-01-05T00:35:13;9.07;;;1.17;;
21675;SDS011;10999;51.332;9.458;2023-01-05T00:37:41;6.60;;;1.35;;
21675;SDS011;10999;51.332;9.458;2023-01-05T00:40:09;8.73;;;1.25;;
21675;SDS011;10999;51.332;9.458;2023-01-05T00:42:37;8.07;;;1.70;;
21675;SDS011;10999;51.332;9.458;2023-01-05T00:45:05;5.32;;;1.10;;
21675;SDS011;10999;51.332;9.458;2023-01-05T00:47:33;7.30;;;1.00;;
21675;SDS011;10999;51.332;9.458;2023-01-05T00:50:00;6.50;;;1.63;;
21675;SDS011;10999;51.332;9.458;2023-01-05T00:52:26;7.85;;;2.03;;
21675;SDS011;10999;51.332;9.458;2023-01-05T00:54:53;8.02;;;1.17;;
21675;SDS011;10999;51.332;9.458;2023-01-05T00:57:20;11.90;;;1.45;;
21675;SDS011;10999;51.332;9.458;2023-01-05T00:59:47;7.70;;;1.25;;
21675;SDS011;10999;51.332;9.458;2023-01-05T01:02:13;9.38;;;1.20;;
21675;SDS011;10999;51.332;9.458;2023-01-05T01:04:40;6.55;;;1.38;;
21675;SDS011;10999;51.332;9.458;2023-01-05T01:07:07;8.80;;;1.63;;
21675;SDS011;10999;51.332;9.458;2023-01-05T01:09:34;8.70;;;1.10;;
21675;SDS011;10999;51.332;9.458;2023-01-05T01:12:00;8.95;;;1.92;;
21675;SDS011;10999;51.332;9.458;2023-01-05T01:14:27;12.15;;;1.90;;
21675;SDS011;10999;51.332;9.458;2023-01-05T01:16:54;13.55;;;1.73;;
21675;SDS011;10999;51.332;9.458;2023-01-05T01:19:22;9.55;;;1.65;;
21675;SDS011;10999;51.332;9.458;2023-01-05T01:21:50;10.05;;;1.60;;
21675;SDS011;10999;51.332;9.458;2023-01-05T01:24:18;10.55;;;1.40;;
21675;SDS011;10999;51.332;9.458;2023-01-05T01:26:54;9.02;;;1.67;;
21675;SDS011;10999;51.332;9.458;2023-01-05T01:29:21;8.98;;;1.95;;
21675;SDS011;10999;51.332;9.458;2023-01-05T01:31:50;8.80;;;1.30;;
21675;SDS011;10999;51.332;9.458;2023-01-05T01:34:17;7.60;;;1.52;;
21675;SDS011;10999;51.332;9.458;2023-01-05T01:36:45;6.25;;;1.38;;
21675;SDS011;10999;51.332;9.458;2023-01-05T01:39:12;7.03;;;1.50;;
21675;SDS011;10999;51.332;9.458;2023-01-05T01:41:39;8.60;;;1.40;;
21675;SDS011;10999;51.332;9.458;2023-01-05T01:50:08;8.43;;;2.17;;
21675;SDS011;10999;51.332;9.458;2023-01-05T01:52:36;12.23;;;1.65;;
21675;SDS011;10999;51.332;9.458;2023-01-05T01:55:03;8.02;;;1.40;;
21675;SDS011;10999;51.332;9.458;2023-01-05T01:57:31;7.03;;;1.58;;
21675;SDS011;10999;51.332;9.458;2023-01-05T01:59:59;8.30;;;1.58;;
21675;SDS011;10999;51.332;9.458;2023-01-05T02:02:29;6.03;;;1.60;;
21675;SDS011;10999;51.332;9.458;2023-01-05T02:04:56;9.38;;;2.00;;
21675;SDS011;10999;51.332;9.458;2023-01-05T02:07:28;9.60;;;1.90;;
21675;SDS011;10999;51.332;9.458;2023-01-05T02:09:58;5.65;;;1.30;;
21675;SDS011;10999;51.332;9.458;2023-01-05T02:17:42;10.10;;;2.13;;
21675;SDS011;10999;51.332;9.458;2023-01-05T02:20:28;11.15;;;2.10;;
21675;SDS011;10999;51.332;9.458;2023-01-05T02:28:58;8.13;;;2.05;;
21675;SDS011;10999;51.332;9.458;2023-01-05T02:31:47;12.70;;;2.25;;
21675;SDS011;10999;51.332;9.458;2023-01-05T02:34:32;10.85;;;2.78;;
21675;SDS011;10999;51.332;9.458;2023-01-05T02:37:07;12.90;;;3.00;;
21675;SDS011;10999;51.332;9.458;2023-01-05T02:42:30;10.73;;;2.63;;
21675;SDS011;10999;51.332;9.458;2023-01-05T02:45:00;12.43;;;2.45;;
21675;SDS011;10999;51.332;9.458;2023-01-05T02:47:36;14.00;;;2.03;;
21675;SDS011;10999;51.332;9.458;2023-01-05T02:50:08;12.05;;;2.38;;
21675;SDS011;10999;51.332;9.458;2023-01-05T02:52:44;7.40;;;1.90;;
21675;SDS011;10999;51.332;9.458;2023-01-05T02:55:20;7.32;;;2.05;;
21675;SDS011;10999;51.332;9.458;2023-01-05T02:57:54;11.82;;;2.42;;
21675;SDS011;10999;51.332;9.458;2023-01-05T03:00:33;9.48;;;2.28;;
21675;SDS011;10999;51.332;9.458;2023-01-05T03:08:48;9.45;;;1.95;;
21675;SDS011;10999;51.332;9.458;2023-01-05T03:11:17;8.23;;;2.35;;
21675;SDS011;10999;51.332;9.458;2023-01-05T03:16:37;6.10;;;1.80;;
21675;SDS011;10999;51.332;9.458;2023-01-05T03:19:09;10.05;;;2.35;;
21675;SDS011;10999;51.332;9.458;2023-01-05T03:21:57;11.82;;;2.10;;
21675;SDS011;10999;51.332;9.458;2023-01-05T03:24:45;8.63;;;2.10;;
21675;SDS011;10999;51.332;9.458;2023-01-05T03:27:32;10.05;;;3.00;;
21675;SDS011;10999;51.332;9.458;2023-01-05T03:30:18;9.73;;;2.17;;
21675;SDS011;10999;51.332;9.458;2023-01-05T03:33:09;12.25;;;2.80;;
21675;SDS011;10999;51.332;9.458;2023-01-05T03:36:13;12.38;;;2.88;;
21675;SDS011;10999;51.332;9.458;2023-01-05T03:38:44;7.57;;;2.38;;
21675;SDS011;10999;51.332;9.458;2023-01-05T03:41:13;9.90;;;2.40;;
21675;SDS011;10999;51.332;9.458;2023-01-05T03:43:41;10.13;;;2.53;;
21675;SDS011;10999;51.332;9.458;2023-01-05T03:46:09;12.65;;;2.80;;
21675;SDS011;10999;51.332;9.458;2023-01-05T03:48:40;9.35;;;2.38;;
21675;SDS011;10999;51.332;9.458;2023-01-05T03:51:07;9.30;;;2.70;;
21675;SDS011;10999;51.332;9.458;2023-01-05T03:53:33;10.43;;;2.72;;
21675;SDS011;10999;51.332;9.458;2023-01-05T03:56:00;10.38;;;2.53;;
21675;SDS011;10999;51.332;9.458;2023-01-05T03:58:27;10.25;;;3.03;;
21675;SDS011;10999;51.332;9.458;2023-01-05T04:00:53;8.82;;;2.40;;
21675;SDS011;10999;51.332;9.458;2023-01-05T04:03:20;10.73;;;2.80;;
21675;SDS011;10999;51.332;9.458;2023-01-05T04:05:54;9.82;;;2.58;;
21675;SDS011;10999;51.332;9.458;2023-01-05T04:08:21;14.75;;;2.50;;
21675;SDS011;10999;51.332;9.458;2023-01-05T04:10:50;11.63;;;2.45;;
21675;SDS011;10999;51.332;9.458;2023-01-05T04:13:18;9.98;;;2.20;;
21675;SDS011;10999;51.332;9.458;2023-01-05T04:15:45;9.52;;;2.63;;
21675;SDS011;10999;51.332;9.458;2023-01-05T04:18:12;13.38;;;3.38;;
21675;SDS011;10999;51.332;9.458;2023-01-05T04:20:39;11.60;;;2.42;;
21675;SDS011;10999;51.332;9.458;2023-01-05T04:23:06;9.90;;;2.92;;
21675;SDS011;10999;51.332;9.458;2023-01-05T04:25:33;12.75;;;3.97;;
21675;SDS011;10999;51.332;9.458;2023-01-05T04:27:59;15.23;;;3.20;;
21675;SDS011;10999;51.332;9.458;2023-01-05T04:30:26;11.23;;;2.47;;
21675;SDS011;10999;51.332;9.458;2023-01-05T04:32:53;8.57;;;3.10;;
21675;SDS011;10999;51.332;9.458;2023-01-05T04:35:19;9.50;;;2.72;;
21675;SDS011;10999;51.332;9.458;2023-01-05T04:37:46;8.70;;;2.90;;
21675;SDS011;10999;51.332;9.458;2023-01-05T04:40:13;12.45;;;3.08;;
21675;SDS011;10999;51.332;9.458;2023-01-05T04:42:39;9.95;;;3.22;;
21675;SDS011;10999;51.332;9.458;2023-01-05T04:45:06;11.48;;;3.05;;
21675;SDS011;10999;51.332;9.458;2023-01-05T04:47:33;9.80;;;2.63;;
21675;SDS011;10999;51.332;9.458;2023-01-05T04:50:00;13.30;;;3.17;;
21675;SDS011;10999;51.332;9.458;2023-01-05T04:52:26;6.63;;;2.55;;
21675;SDS011;10999;51.332;9.458;2023-01-05T04:54:53;15.20;;;3.63;;
21675;SDS011;10999;51.332;9.458;2023-01-05T04:57:20;12.20;;;3.22;;
21675;SDS011;10999;51.332;9.458;2023-01-05T04:59:46;14.30;;;3.65;;
21675;SDS011;10999;51.332;9.458;2023-01-05T05:02:13;11.77;;;3.30;;
21675;SDS011;10999;51.332;9.458;2023-01-05T05:04:40;9.75;;;2.25;;
21675;SDS011;10999;51.332;9.458;2023-01-05T05:07:07;11.88;;;2.80;;
21675;SDS011;10999;51.332;9.458;2023-01-05T05:09:33;13.23;;;3.00;;
21675;SDS011;10999;51.332;9.458;2023-01-05T05:12:00;9.27;;;2.88;;
21675;SDS011;10999;51.332;9.458;2023-01-05T05:14:27;14.02;;;2.78;;
21675;SDS011;10999;51.332;9.458;2023-01-05T05:16:53;10.75;;;3.20;;
21675;SDS011;10999;51.332;9.458;2023-01-05T05:19:20;10.10;;;2.70;;
21675;SDS011;10999;51.332;9.458;2023-01-05T05:21:47;10.65;;;2.67;;
21675;SDS011;10999;51.332;9.458;2023-01-05T05:24:13;10.38;;;2.45;;
21675;SDS011;10999;51.332;9.458;2023-01-05T05:26:40;11.55;;;2.72;;
21675;SDS011;10999;51.332;9.458;2023-01-05T05:29:07;11.65;;;2.60;;
21675;SDS011;10999;51.332;9.458;2023-01-05T05:31:33;10.85;;;2.33;;
21675;SDS011;10999;51.332;9.458;2023-01-05T05:34:02;7.68;;;2.35;;
21675;SDS011;10999;51.332;9.458;2023-01-05T05:36:28;8.57;;;2.28;;
21675;SDS011;10999;51.332;9.458;2023-01-05T05:38:55;6.53;;;2.35;;
21675;SDS011;10999;51.332;9.458;2023-01-05T05:41:23;8.20;;;2.28;;
21675;SDS011;10999;51.332;9.458;2023-01-05T05:43:50;11.82;;;2.63;;
21675;SDS011;10999;51.332;9.458;2023-01-05T05:46:16;9.23;;;2.58;;
21675;SDS011;10999;51.332;9.458;2023-01-05T05:48:43;8.65;;;2.40;;
21675;SDS011;10999;51.332;9.458;2023-01-05T05:51:10;7.78;;;2.55;;
21675;SDS011;10999;51.332;9.458;2023-01-05T05:53:36;11.73;;;2.42;;
21675;SDS011;10999;51.332;9.458;2023-01-05T05:56:03;7.10;;;2.35;;
21675;SDS011;10999;51.332;9.458;2023-01-05T05:58:30;9.65;;;2.70;;
21675;SDS011;10999;51.332;9.458;2023-01-05T06:00:57;10.13;;;3.13;;
21675;SDS011;10999;51.332;9.458;2023-01-05T06:03:24;7.80;;;2.50;;
21675;SDS011;10999;51.332;9.458;2023-01-05T06:05:51;15.65;;;3.78;;
21675;SDS011;10999;51.332;9.458;2023-01-05T06:08:18;10.15;;;2.78;;
21675;SDS011;10999;51.332;9.458;2023-01-05T06:10:45;7.78;;;2.50;;
21675;SDS011;10999;51.332;9.458;2023-01-05T06:13:13;10.02;;;3.20;;
21675;SDS011;10999;51.332;9.458;2023-01-05T06:15:40;8.43;;;2.70;;
21675;SDS011;10999;51.332;9.458;2023-01-05T06:18:07;8.25;;;2.92;;
21675;SDS011;10999;51.332;9.458;2023-01-05T06:20:34;6.72;;;2.83;;
21675;SDS011;10999;51.332;9.458;2023-01-05T06:23:01;6.97;;;2.83;;
21675;SDS011;10999;51.332;9.458;2023-01-05T06:25:28;10.27;;;2.75;;
21675;SDS011;10999;51.332;9.458;2023-01-05T06:27:54;10.05;;;3.03;;
21675;SDS011;10999;51.332;9.458;2023-01-05T06:30:21;8.85;;;2.08;;
21675;SDS011;10999;51.332;9.458;2023-01-05T06:32:48;10.30;;;2.40;;
21675;SDS011;10999;51.332;9.458;2023-01-05T06:35:14;7.97;;;2.30;;
21675;SDS011;10999;51.332;9.458;2023-01-05T06:37:41;9.95;;;2.53;;
21675;SDS011;10999;51.332;9.458;2023-01-05T06:40:08;10.60;;;2.58;;
21675;SDS011;10999;51.332;9.458;2023-01-05T06:42:37;9.90;;;2.30;;
21675;SDS011;10999;51.332;9.458;2023-01-05T06:45:04;10.10;;;2.10;;
21675;SDS011;10999;51.332;9.458;2023-01-05T06:47:32;11.55;;;2.13;;
21675;SDS011;10999;51.332;9.458;2023-01-05T06:49:59;6.47;;;2.20;;
21675;SDS011;10999;51.332;9.458;2023-01-05T06:52:25;5.43;;;2.35;;
21675;SDS011;10999;51.332;9.458;2023-01-05T06:54:52;9.98;;;2.10;;
21675;SDS011;10999;51.332;9.458;2023-01-05T06:57:18;8.98;;;2.30;;
21675;SDS011;10999;51.332;9.458;2023-01-05T06:59:45;8.23;;;2.00;;
21675;SDS011;10999;51.332;9.458;2023-01-05T07:02:12;9.15;;;2.00;;
21675;SDS011;10999;51.332;9.458;2023-01-05T07:04:41;7.70;;;2.20;;
21675;SDS011;10999;51.332;9.458;2023-01-05T07:07:10;10.32;;;2.20;;
21675;SDS011;10999;51.332;9.458;2023-01-05T07:09:38;7.72;;;2.42;;
21675;SDS011;10999;51.332;9.458;2023-01-05T07:12:05;7.78;;;2.10;;
21675;SDS011;10999;51.332;9.458;2023-01-05T07:14:31;6.45;;;1.90;;
21675;SDS011;10999;51.332;9.458;2023-01-05T07:16:58;9.80;;;2.58;;
21675;SDS011;10999;51.332;9.458;2023-01-05T07:19:25;10.13;;;2.45;;
21675;SDS011;10999;51.332;9.458;2023-01-05T07:21:52;8.00;;;2.40;;
21675;SDS011;10999;51.332;9.458;2023-01-05T07:24:22;9.40;;;2.47;;
21675;SDS011;10999;51.332;9.458;2023-01-05T07:26:49;12.68;;;2.05;;
21675;SDS011;10999;51.332;9.458;2023-01-05T07:29:16;7.63;;;2.00;;
21675;SDS011;10999;51.332;9.458;2023-01-05T07:31:42;7.22;;;2.05;;
21675;SDS011;10999;51.332;9.458;2023-01-05T07:34:09;7.57;;;2.05;;
21675;SDS011;10999;51.332;9.458;2023-01-05T07:36:36;8.00;;;1.85;;
21675;SDS011;10999;51.332;9.458;2023-01-05T07:39:02;6.28;;;1.85;;
21675;SDS011;10999;51.332;9.458;2023-01-05T07:41:29;10.10;;;2.38;;
21675;SDS011;10999;51.332;9.458;2023-01-05T07:43:56;9.02;;;2.00;;
21675;SDS011;10999;51.332;9.458;2023-01-05T07:46:22;8.52;;;1.77;;
21675;SDS011;10999;51.332;9.458;2023-01-05T07:48:49;7.63;;;2.13;;
21675;SDS011;10999;51.332;9.458;2023-01-05T07:51:16;6.13;;;2.00;;
21675;SDS011;10999;51.332;9.458;2023-01-05T07:53:43;7.80;;;2.38;;
21675;SDS011;10999;51.332;9.458;2023-01-05T07:56:10;6.75;;;1.92;;
21675;SDS011;10999;51.332;9.458;2023-01-05T07:58:37;8.48;;;2.30;;
21675;SDS011;10999;51.332;9.458;2023-01-05T08:01:05;9.40;;;2.20;;
21675;SDS011;10999;51.332;9.458;2023-01-05T08:03:33;7.60;;;1.92;;
21675;SDS011;10999;51.332;9.458;2023-01-05T08:06:04;8.68;;;2.10;;
21675;SDS011;10999;51.332;9.458;2023-01-05T08:08:39;10.18;;;2.75;;
21675;SDS011;10999;51.332;9.458;2023-01-05T08:11:07;8.43;;;1.92;;
21675;SDS011;10999;51.332;9.458;2023-01-05T08:13:35;8.52;;;2.30;;
21675;SDS011;10999;51.332;9.458;2023-01-05T08:16:20;10.55;;;2.40;;
21675;SDS011;10999;51.332;9.458;2023-01-05T08:18:47;8.57;;;2.13;;
21675;SDS011;10999;51.332;9.458;2023-01-05T08:21:14;6.95;;;1.70;;
21675;SDS011;10999;51.332;9.458;2023-01-05T08:23:41;8.98;;;2.00;;
21675;SDS011;10999;51.332;9.458;2023-01-05T08:26:15;6.95;;;2.67;;
21675;SDS011;10999;51.332;9.458;2023-01-05T08:28:44;10.05;;;1.75;;
21675;SDS011;10999;51.332;9.458;2023-01-05T08:31:12;9.25;;;2.42;;
21675;SDS011;10999;51.332;9.458;2023-01-05T08:33:42;10.95;;;2.00;;
21675;SDS011;10999;51.332;9.458;2023-01-05T08:36:13;7.35;;;2.00;;
21675;SDS011;10999;51.332;9.458;2023-01-05T08:38:50;6.78;;;1.73;;
21675;SDS011;10999;51.332;9.458;2023-01-05T08:41:19;6.65;;;1.60;;
21675;SDS011;10999;51.332;9.458;2023-01-05T08:43:50;9.25;;;1.77;;
21675;SDS011;10999;51.332;9.458;2023-01-05T08:46:18;10.13;;;1.73;;
21675;SDS011;10999;51.332;9.458;2023-01-05T08:48:47;8.45;;;2.10;;
21675;SDS011;10999;51.332;9.458;2023-01-05T08:51:15;7.18;;;1.77;;
21675;SDS011;10999;51.332;9.458;2023-01-05T08:53:42;5.28;;;1.67;;
21675;SDS011;10999;51.332;9.458;2023-01-05T08:56:09;6.95;;;1.58;;
21675;SDS011;10999;51.332;9.458;2023-01-05T08:58:39;6.10;;;1.15;;
21675;SDS011;10999;51.332;9.458;2023-01-05T09:01:07;5.25;;;1.40;;
21675;SDS011;10999;51.332;9.458;2023-01-05T09:03:35;8.15;;;1.88;;
21675;SDS011;10999;51.332;9.458;2023-01-05T09:06:03;7.30;;;1.45;;
21675;SDS011;10999;51.332;9.458;2023-01-05T09:08:32;6.90;;;1.30;;
21675;SDS011;10999;51.332;9.458;2023-01-05T09:11:33;5.20;;;1.58;;
21675;SDS011;10999;51.332;9.458;2023-01-05T09:13:56;5.40;;;1.27;;
21675;SDS011;10999;51.332;9.458;2023-01-05T09:16:25;5.90;;;1.95;;
21675;SDS011;10999;51.332;9.458;2023-01-05T09:19:14;6.03;;;1.30;;
21675;SDS011;10999;51.332;9.458;2023-01-05T09:21:41;4.65;;;1.40;;
21675;SDS011;10999;51.332;9.458;2023-01-05T09:24:09;5.82;;;1.33;;
21675;SDS011;10999;51.332;9.458;2023-01-05T09:26:38;6.72;;;1.45;;
21675;SDS011;10999;51.332;9.458;2023-01-05T09:29:05;7.50;;;1.85;;
21675;SDS011;10999;51.332;9.458;2023-01-05T09:31:32;5.30;;;1.55;;
21675;SDS011;10999;51.332;9.458;2023-01-05T09:33:59;6.22;;;1.15;;
21675;SDS011;10999;51.332;9.458;2023-01-05T09:36:26;5.10;;;1.48;;
21675;SDS011;10999;51.332;9.458;2023-01-05T09:38:53;5.82;;;1.73;;
21675;SDS011;10999;51.332;9.458;2023-01-05T09:43:56;7.15;;;1.73;;
21675;SDS011;10999;51.332;9.458;2023-01-05T09:46:26;4.22;;;1.30;;
21675;SDS011;10999;51.332;9.458;2023-01-05T09:49:00;9.43;;;2.08;;
21675;SDS011;10999;51.332;9.458;2023-01-05T09:51:29;8.45;;;1.63;;
21675;SDS011;10999;51.332;9.458;2023-01-05T09:53:57;6.57;;;1.48;;
21675;SDS011;10999;51.332;9.458;2023-01-05T09:56:27;10.80;;;1.92;;
21675;SDS011;10999;51.332;9.458;2023-01-05T09:59:18;5.18;;;1.77;;
21675;SDS011;10999;51.332;9.458;2023-01-05T10:01:49;7.57;;;1.95;;
21675;SDS011;10999;51.332;9.458;2023-01-05T10:04:18;11.13;;;2.55;;
21675;SDS011;10999;51.332;9.458;2023-01-05T10:06:59;6.30;;;1.60;;
21675;SDS011;10999;51.332;9.458;2023-01-05T10:09:31;5.80;;;1.80;;
21675;SDS011;10999;51.332;9.458;2023-01-05T10:12:08;8.07;;;1.77;;
21675;SDS011;10999;51.332;9.458;2023-01-05T10:15:04;7.20;;;1.50;;
21675;SDS011;10999;51.332;9.458;2023-01-05T10:17:35;7.20;;;1.77;;
21675;SDS011;10999;51.332;9.458;2023-01-05T10:20:22;5.05;;;1.42;;
21675;SDS011;10999;51.332;9.458;2023-01-05T10:34:13;4.43;;;1.60;;
21675;SDS011;10999;51.332;9.458;2023-01-05T10:37:07;8.23;;;2.03;;
21675;SDS011;10999;51.332;9.458;2023-01-05T10:39:49;5.63;;;1.70;;
21675;SDS011;10999;51.332;9.458;2023-01-05T10:42:43;5.97;;;2.10;;
21675;SDS011;10999;51.332;9.458;2023-01-05T10:45:18;7.40;;;2.03;;
21675;SDS011;10999;51.332;9.458;2023-01-05T10:47:47;7.75;;;2.47;;
21675;SDS011;10999;51.332;9.458;2023-01-05T10:53:08;7.38;;;2.10;;
21675;SDS011;10999;51.332;9.458;2023-01-05T10:55:52;5.55;;;2.05;;
21675;SDS011;10999;51.332;9.458;2023-01-05T10:58:27;8.20;;;2.42;;
21675;SDS011;10999;51.332;9.458;2023-01-05T11:00:58;8.50;;;2.45;;
21675;SDS011;10999;51.332;9.458;2023-01-05T11:03:35;6.65;;;1.98;;
21675;SDS011;10999;51.332;9.458;2023-01-05T11:06:34;7.03;;;2.17;;
21675;SDS011;10999;51.332;9.458;2023-01-05T11:11:54;8.40;;;2.53;;
21675;SDS011;10999;51.332;9.458;2023-01-05T11:14:26;7.60;;;2.20;;
21675;SDS011;10999;51.332;9.458;2023-01-05T11:16:59;6.05;;;1.73;;
21675;SDS011;10999;51.332;9.458;2023-01-05T11:19:29;7.22;;;1.55;;
21675;SDS011;10999;51.332;9.458;2023-01-05T11:22:00;6.18;;;2.20;;
21675;SDS011;10999;51.332;9.458;2023-01-05T11:24:32;5.22;;;1.92;;
21675;SDS011;10999;51.332;9.458;2023-01-05T11:27:20;6.60;;;1.90;;
21675;SDS011;10999;51.332;9.458;2023-01-05T11:32:44;5.53;;;1.67;;
21675;SDS011;10999;51.332;9.458;2023-01-05T11:35:20;5.03;;;1.60;;
21675;SDS011;10999;51.332;9.458;2023-01-05T11:37:52;9.50;;;2.03;;
21675;SDS011;10999;51.332;9.458;2023-01-05T11:40:19;10.45;;;2.20;;
21675;SDS011;10999;51.332;9.458;2023-01-05T11:42:48;7.60;;;2.15;;
21675;SDS011;10999;51.332;9.458;2023-01-05T11:45:24;7.93;;;2.67;;
21675;SDS011;10999;51.332;9.458;2023-01-05T11:47:55;9.60;;;2.28;;
21675;SDS011;10999;51.332;9.458;2023-01-05T11:50:25;9.45;;;2.25;;
21675;SDS011;10999;51.332;9.458;2023-01-05T11:55:58;9.90;;;2.88;;
21675;SDS011;10999;51.332;9.458;2023-01-05T11:58:47;10.30;;;2.70;;
21675;SDS011;10999;51.332;9.458;2023-01-05T12:04:03;9.73;;;2.78;;
21675;SDS011;10999;51.332;9.458;2023-01-05T12:09:35;9.65;;;3.05;;
21675;SDS011;10999;51.332;9.458;2023-01-05T12:12:23;8.23;;;2.30;;
21675;SDS011;10999;51.332;9.458;2023-01-05T12:17:32;12.70;;;4.00;;
21675;SDS011;10999;51.332;9.458;2023-01-05T12:22:59;11.63;;;3.05;;
21675;SDS011;10999;51.332;9.458;2023-01-05T12:25:52;13.32;;;3.50;;
21675;SDS011;10999;51.332;9.458;2023-01-05T12:34:55;11.93;;;3.55;;
21675;SDS011;10999;51.332;9.458;2023-01-05T12:40:35;13.23;;;3.60;;
21675;SDS011;10999;51.332;9.458;2023-01-05T12:43:47;11.05;;;3.50;;
21675;SDS011;10999;51.332;9.458;2023-01-05T12:49:16;12.00;;;3.53;;
21675;SDS011;10999;51.332;9.458;2023-01-05T12:52:11;13.43;;;3.50;;
21675;SDS011;10999;51.332;9.458;2023-01-05T12:54:44;10.88;;;3.60;;
21675;SDS011;10999;51.332;9.458;2023-01-05T12:57:17;14.70;;;4.25;;
21675;SDS011;10999;51.332;9.458;2023-01-05T12:59:58;13.48;;;4.53;;
21675;SDS011;10999;51.332;9.458;2023-01-05T13:02:45;13.13;;;4.60;;
21675;SDS011;10999;51.332;9.458;2023-01-05T13:05:31;10.98;;;3.38;;
21675;SDS011;10999;51.332;9.458;2023-01-05T13:11:12;10.32;;;3.17;;
21675;SDS011;10999;51.332;9.458;2023-01-05T13:13:41;12.65;;;3.95;;
21675;SDS011;10999;51.332;9.458;2023-01-05T13:18:56;8.60;;;2.90;;
21675;SDS011;10999;51.332;9.458;2023-01-05T13:23:57;13.93;;;3.55;;
21675;SDS011;10999;51.332;9.458;2023-01-05T13:26:28;11.73;;;3.58;;
21675;SDS011;10999;51.332;9.458;2023-01-05T13:29:03;12.48;;;3.22;;
21675;SDS011;10999;51.332;9.458;2023-01-05T13:31:40;9.50;;;3.78;;
21675;SDS011;10999;51.332;9.458;2023-01-05T13:45:24;9.05;;;2.85;;
21675;SDS011;10999;51.332;9.458;2023-01-05T13:53:22;13.02;;;4.07;;
21675;SDS011;10999;51.332;9.458;2023-01-05T13:58:26;6.65;;;2.67;;
21675;SDS011;10999;51.332;9.458;2023-01-05T14:01:11;11.50;;;2.80;;
21675;SDS011;10999;51.332;9.458;2023-01-05T14:03:58;9.02;;;2.90;;
21675;SDS011;10999;51.332;9.458;2023-01-05T14:06:26;9.63;;;3.25;;
21675;SDS011;10999;51.332;9.458;2023-01-05T14:09:03;11.60;;;3.47;;
21675;SDS011;10999;51.332;9.458;2023-01-05T14:12:22;10.45;;;2.60;;
21675;SDS011;10999;51.332;9.458;2023-01-05T14:20:37;9.27;;;2.58;;
21675;SDS011;10999;51.332;9.458;2023-01-05T14:25:57;9.93;;;2.67;;
21675;SDS011;10999;51.332;9.458;2023-01-05T14:33:46;10.65;;;3.22;;
21675;SDS011;10999;51.332;9.458;2023-01-05T14:44:28;10.32;;;2.85;;
21675;SDS011;10999;51.332;9.458;2023-01-05T14:47:01;12.75;;;3.33;;
21675;SDS011;10999;51.332;9.458;2023-01-05T14:49:30;10.77;;;3.10;;
21675;SDS011;10999;51.332;9.458;2023-01-05T14:52:03;9.63;;;3.33;;
21675;SDS011;10999;51.332;9.458;2023-01-05T14:54:36;12.25;;;3.65;;
21675;SDS011;10999;51.332;9.458;2023-01-05T14:59:45;10.27;;;3.50;;
21675;SDS011;10999;51.332;9.458;2023-01-05T15:02:15;15.30;;;3.67;;
21675;SDS011;10999;51.332;9.458;2023-01-05T15:04:47;13.15;;;4.28;;
21675;SDS011;10999;51.332;9.458;2023-01-05T15:21:27;15.63;;;3.45;;
21675;SDS011;10999;51.332;9.458;2023-01-05T15:27:01;9.93;;;3.85;;
21675;SDS011;10999;51.332;9.458;2023-01-05T15:32:52;10.50;;;3.42;;
21675;SDS011;10999;51.332;9.458;2023-01-05T15:35:39;11.57;;;3.75;;
21675;SDS011;10999;51.332;9.458;2023-01-05T15:38:22;13.52;;;3.80;;
21675;SDS011;10999;51.332;9.458;2023-01-05T15:40:56;12.70;;;3.05;;
21675;SDS011;10999;51.332;9.458;2023-01-05T15:43:25;10.55;;;3.20;;
21675;SDS011;10999;51.332;9.458;2023-01-05T15:45:53;10.10;;;3.15;;
21675;SDS011;10999;51.332;9.458;2023-01-05T15:48:27;9.55;;;3.38;;
21675;SDS011;10999;51.332;9.458;2023-01-05T15:50:59;9.27;;;3.30;;
21675;SDS011;10999;51.332;9.458;2023-01-05T15:53:31;12.30;;;3.22;;
21675;SDS011;10999;51.332;9.458;2023-01-05T15:56:04;7.30;;;3.05;;
21675;SDS011;10999;51.332;9.458;2023-01-05T15:58:50;13.32;;;3.63;;
21675;SDS011;10999;51.332;9.458;2023-01-05T16:01:17;9.65;;;2.80;;
21675;SDS011;10999;51.332;9.458;2023-01-05T16:03:44;10.27;;;2.95;;
21675;SDS011;10999;51.332;9.458;2023-01-05T16:06:20;9.35;;;2.75;;
21675;SDS011;10999;51.332;9.458;2023-01-05T16:08:50;9.95;;;3.00;;
21675;SDS011;10999;51.332;9.458;2023-01-05T16:11:25;10.40;;;3.92;;
21675;SDS011;10999;51.332;9.458;2023-01-05T16:14:12;7.50;;;2.80;;
21675;SDS011;10999;51.332;9.458;2023-01-05T16:17:13;10.25;;;3.10;;
21675;SDS011;10999;51.332;9.458;2023-01-05T16:22:29;11.68;;;2.47;;
21675;SDS011;10999;51.332;9.458;2023-01-05T16:25:25;7.00;;;2.20;;
21675;SDS011;10999;51.332;9.458;2023-01-05T16:27:57;8.75;;;2.80;;
21675;SDS011;10999;51.332;9.458;2023-01-05T16:35:45;9.07;;;2.50;;
21675;SDS011;10999;51.332;9.458;2023-01-05T16:38:15;9.02;;;2.58;;
21675;SDS011;10999;51.332;9.458;2023-01-05T16:43:24;6.45;;;2.35;;
21675;SDS011;10999;51.332;9.458;2023-01-05T16:46:42;8.25;;;2.28;;
21675;SDS011;10999;51.332;9.458;2023-01-05T16:48:49;9.68;;;3.33;;
21675;SDS011;10999;51.332;9.458;2023-01-05T16:51:18;8.65;;;2.15;;
21675;SDS011;10999;51.332;9.458;2023-01-05T16:53:47;13.25;;;2.30;;
21675;SDS011;10999;51.332;9.458;2023-01-05T16:56:42;6.25;;;1.90;;
21675;SDS011;10999;51.332;9.458;2023-01-05T17:01:56;9.50;;;2.60;;
21675;SDS011;10999;51.332;9.458;2023-01-05T17:04:23;9.48;;;2.35;;
21675;SDS011;10999;51.332;9.458;2023-01-05T17:06:50;7.63;;;2.38;;
21675;SDS011;10999;51.332;9.458;2023-01-05T17:09:28;9.93;;;2.63;;
21675;SDS011;10999;51.332;9.458;2023-01-05T17:11:57;10.50;;;2.90;;
21675;SDS011;10999;51.332;9.458;2023-01-05T17:14:24;12.38;;;3.10;;
21675;SDS011;10999;51.332;9.458;2023-01-05T17:16:53;8.88;;;2.53;;
21675;SDS011;10999;51.332;9.458;2023-01-05T17:19:20;8.35;;;3.15;;
21675;SDS011;10999;51.332;9.458;2023-01-05T17:21:57;9.38;;;2.83;;
21675;SDS011;10999;51.332;9.458;2023-01-05T17:24:26;13.32;;;3.47;;
21675;SDS011;10999;51.332;9.458;2023-01-05T17:26:53;10.90;;;2.85;;
21675;SDS011;10999;51.332;9.458;2023-01-05T17:29:21;11.98;;;3.75;;
21675;SDS011;10999;51.332;9.458;2023-01-05T17:31:49;8.98;;;3.30;;
21675;SDS011;10999;51.332;9.458;2023-01-05T17:34:16;10.38;;;3.78;;
21675;SDS011;10999;51.332;9.458;2023-01-05T17:36:43;13.52;;;4.20;;
21675;SDS011;10999;51.332;9.458;2023-01-05T17:39:14;12.30;;;4.10;;
21675;SDS011;10999;51.332;9.458;2023-01-05T17:41:43;12.05;;;3.97;;
21675;SDS011;10999;51.332;9.458;2023-01-05T17:44:10;7.25;;;3.33;;
21675;SDS011;10999;51.332;9.458;2023-01-05T17:46:39;11.77;;;4.60;;
21675;SDS011;10999;51.332;9.458;2023-01-05T17:49:11;11.20;;;3.35;;
21675;SDS011;10999;51.332;9.458;2023-01-05T17:51:40;9.57;;;3.80;;
21675;SDS011;10999;51.332;9.458;2023-01-05T17:54:07;11.55;;;4.30;;